Latest Weather Observations for Holsworthy

IDN60901

Issued at 3:25 pm EST Saturday 23 August 2014 (issued every 10 minutes, with the page automatically refreshed every 10 minutes)

About weather observations | Map of Sydney area stations | Latest observations for Sydney area | Other Formats
Station Details ID: 066161 Name: HOLSWORTHY AERODROME AWS Lat: -33.99 Lon: 150.95 Height: 68.16 m
Data from the previous 72 hours. | See also: Recent months for locations in New South Wales
Date/Time
EST
Tmp

°C
App
Tmp
°C
Dew
Point
°C
Rel
Hum
%
Delta-T

°C
Wind Press
QNH
hPa
Press
MSL
hPa
Rain
since
9 am
mm
Dir
 
Spd
km/h
Gust
km/h
Spd
kts
Gust
kts
23/03:00pm 15.4 12.6 11.4 77 2.1 ESE 17 26 9 14 1028.9 1029.0 0.2
23/02:30pm 15.3 12.8 12.4 83 1.6 SE 17 24 9 13 1028.9 - 0.2
23/02:00pm 15.3 12.6 13.0 86 1.3 SE 19 26 10 14 1029.0 1029.1 0.2
23/01:30pm 15.6 13.2 12.7 83 1.6 ESE 17 28 9 15 1029.0 - 0.0
23/01:00pm 17.5 15.4 11.1 66 3.4 E 13 19 7 10 1028.9 1029.0 0.0
23/12:30pm 17.6 15.4 10.7 64 3.7 SSE 13 19 7 10 1029.3 - 0.0
23/12:00pm 17.7 15.6 11.3 66 3.5 S 13 20 7 11 1030.0 1030.0 0.0
23/11:30am 16.3 14.4 11.7 74 2.5 SE 13 17 7 9 1030.6 - 0.0
23/11:00am 15.2 13.5 12.5 84 1.5 SSE 13 19 7 10 1031.0 1031.0 0.0
23/10:30am 15.0 14.2 13.0 88 1.1 SSE 9 13 5 7 1031.2 - 0.0
23/10:00am 14.2 13.4 12.9 92 0.7 SSE 9 13 5 7 1031.4 1031.4 0.0
23/09:30am 13.4 13.6 13.2 99 0.1 SSW 4 11 2 6 1031.4 - 0.0
23/09:00am 11.5 10.8 11.3 99 0.1 SW 6 7 3 4 1031.4 1031.4 0.4
23/08:30am 9.2 8.6 9.1 99 0.0 WSW 2 6 1 3 1031.5 - 0.2
23/08:00am 8.2 6.1 8.1 99 0.0 WSW 9 11 5 6 1031.2 1031.2 0.0
23/07:30am 8.2 6.6 7.9 98 0.1 WSW 6 7 3 4 1031.1 - 0.0
23/07:00am 7.9 6.0 7.6 98 0.1 WSW 7 9 4 5 1030.7 1030.7 0.0
23/06:30am 8.1 5.2 8.0 99 0.0 WSW 13 15 7 8 1030.1 - 0.0
23/06:00am 8.1 5.9 7.8 98 0.1 WSW 9 11 5 6 1029.9 1029.9 0.0
23/05:30am 8.5 6.0 8.4 99 0.0 WSW 11 13 6 7 1029.7 - 0.0
23/05:00am 8.0 6.1 7.7 98 0.1 WSW 7 11 4 6 1029.6 1029.6 0.0
23/04:30am 7.8 5.5 7.5 98 0.1 SW 9 11 5 6 1029.3 - 0.0
23/04:00am 7.9 6.6 7.6 98 0.1 SW 4 9 2 5 1029.2 1029.3 0.0
23/03:30am 8.1 6.3 7.8 98 0.1 SW 7 9 4 5 1029.4 - 0.0
23/03:00am 8.2 7.0 7.9 98 0.1 SW 4 9 2 5 1029.7 1029.7 0.0
23/02:30am 7.9 6.0 7.5 97 0.2 WSW 7 9 4 5 1029.6 - 0.0
23/02:00am 8.4 7.9 8.0 97 0.2 CALM 0 0 0 0 1029.9 1029.9 0.0
23/01:30am 8.6 8.2 8.2 97 0.2 CALM 0 0 0 0 1030.3 - 0.0
23/01:00am 8.5 6.7 8.1 97 0.2 SW 7 9 4 5 1030.3 1030.3 0.0
23/12:30am 9.2 7.2 8.7 97 0.2 WSW 9 11 5 6 1030.5 - 0.0
23/12:00am 9.3 7.3 8.8 97 0.2 SW 9 13 5 7 1030.7 1030.7 0.0
 
Date/Time
EST
Tmp

°C
App
Tmp
°C
Dew
Point
°C
Rel
Hum
%
Delta-T

°C
Wind Press
QNH
hPa
Press
MSL
hPa
Rain
since
9 am
mm
Dir
 
Spd
km/h
Gust
km/h
Spd
kts
Gust
kts
22/11:30pm 9.1 7.4 8.5 96 0.3 WSW 7 11 4 6 1030.6 - 0.0
22/11:00pm 9.7 7.8 9.2 97 0.2 SSW 9 13 5 7 1030.9 1030.9 0.0
22/10:30pm 9.8 7.6 9.2 96 0.3 WSW 11 13 6 7 1030.8 - 0.0
22/10:00pm 10.0 7.4 9.4 96 0.3 SW 13 17 7 9 1030.9 1030.9 0.0
22/09:30pm 10.3 8.1 9.5 95 0.4 SW 11 15 6 8 1030.9 - 0.0
22/09:00pm 10.7 8.7 10.1 96 0.3 SW 11 15 6 8 1030.8 1030.8 0.0
22/08:30pm 10.8 8.7 9.9 94 0.5 SW 11 15 6 8 1030.7 - 0.0
22/08:00pm 11.3 9.8 10.4 94 0.5 SW 9 11 5 6 1030.8 1030.8 0.0
22/07:30pm 11.3 9.7 10.2 93 0.6 WSW 9 11 5 6 1030.6 - 0.0
22/07:00pm 11.5 10.2 9.8 89 0.9 SSW 7 9 4 5 1030.3 1030.3 0.0
22/06:30pm 12.7 11.6 10.8 88 1.0 S 7 9 4 5 1030.0 - 0.0
22/06:00pm 13.6 12.6 10.9 84 1.4 SSE 7 11 4 6 1029.9 1029.9 0.0
22/05:30pm 14.2 12.4 10.8 80 1.8 SSE 11 13 6 7 1029.7 - 0.0
22/05:00pm 15.1 12.6 10.9 76 2.2 SE 15 22 8 12 1029.3 1029.4 0.0
22/04:30pm 15.7 12.5 10.0 69 3.0 ESE 17 24 9 13 1029.0 - 0.0
22/04:00pm 16.2 13.0 9.8 66 3.3 SSE 17 24 9 13 1028.8 1028.9 0.0
22/03:30pm 16.6 13.0 9.8 64 3.6 SSE 19 24 10 13 1028.8 - 0.0
22/03:00pm 17.3 13.5 9.7 61 4.0 SE 20 26 11 14 1028.9 1029.0 0.0
22/02:30pm 17.4 13.6 9.1 58 4.3 SE 19 26 10 14 1028.9 - 0.0
22/02:00pm 17.6 14.7 9.8 60 4.1 SE 15 24 8 13 1029.1 1029.2 0.0
22/01:30pm 16.9 14.0 9.6 62 3.8 SE 15 24 8 13 1029.3 - 0.0
22/01:00pm 16.7 13.4 9.4 62 3.8 SSE 17 28 9 15 1029.7 1029.7 0.0
22/12:30pm 16.6 13.6 9.1 61 3.9 SSE 15 20 8 11 1030.1 - 0.0
22/12:00pm 17.7 15.6 9.8 60 4.1 SSW 11 19 6 10 1030.5 1030.5 0.0
22/11:30am 16.3 13.0 9.7 65 3.5 SSE 17 20 9 11 1031.2 - 0.0
22/11:00am 16.1 13.2 9.5 65 3.4 SE 15 20 8 11 1031.6 1031.6 0.0
22/10:30am 15.6 13.3 10.4 71 2.7 SE 13 19 7 10 1031.9 - 0.0
22/10:00am 15.6 13.8 10.8 73 2.5 S 11 24 6 13 1032.1 1032.1 0.0
22/09:30am 14.7 11.7 10.7 77 2.1 SSE 17 20 9 11 1032.1 - 0.0
22/09:00am 14.4 12.3 11.0 80 1.8 S 13 22 7 12 1032.0 1032.0 1.2
22/08:30am 14.4 13.3 12.1 86 1.2 SSW 9 17 5 9 1031.8 - 1.2
22/08:00am 11.5 9.9 10.2 92 0.7 WSW 9 11 5 6 1031.5 1031.5 1.2
22/07:30am 10.5 8.7 9.6 94 0.5 SSW 9 11 5 6 1031.1 - 1.2
22/07:00am 10.5 8.4 9.9 96 0.3 SSW 11 15 6 8 1030.8 1030.8 1.2
22/06:30am 9.3 7.3 8.8 97 0.2 SSW 9 13 5 7 1030.5 - 1.2
22/06:00am 9.3 7.3 8.8 97 0.2 SW 9 13 5 7 1030.2 1030.2 1.2
22/05:30am 9.5 7.9 8.9 96 0.3 WSW 7 9 4 5 1030.0 - 1.0
22/05:00am 9.6 8.6 8.8 95 0.4 W 4 6 2 3 1029.8 1029.8 1.0
22/04:30am 10.2 9.0 9.4 95 0.4 NNE 6 7 3 4 1029.7 - 1.0
22/04:00am 10.3 8.5 9.4 94 0.4 SSW 9 13 5 7 1029.3 1029.4 1.0
22/03:30am 11.3 9.6 10.0 92 0.7 S 9 15 5 8 1029.4 - 1.0
22/03:00am 10.5 8.8 9.7 95 0.4 SSW 9 15 5 8 1029.4 1029.5 1.0
22/02:30am 10.4 8.5 9.2 92 0.6 SW 9 9 5 5 1029.6 - 1.0
22/02:00am 11.0 9.2 9.6 91 0.7 SW 9 11 5 6 1029.9 1029.9 1.0
22/01:30am 11.4 10.0 9.5 88 1.0 SSW 7 11 4 6 1030.0 - 1.0
22/01:00am 11.4 9.3 9.8 90 0.8 S 11 15 6 8 1030.2 1030.2 1.0
22/12:30am 11.2 9.5 9.8 91 0.7 SSW 9 17 5 9 1030.4 - 1.0
22/12:00am 11.2 9.1 9.8 91 0.7 SW 11 15 6 8 1030.5 1030.5 1.0
 
Date/Time
EST
Tmp

°C
App
Tmp
°C
Dew
Point
°C
Rel
Hum
%
Delta-T

°C
Wind Press
QNH
hPa
Press
MSL
hPa
Rain
since
9 am
mm
Dir
 
Spd
km/h
Gust
km/h
Spd
kts
Gust
kts
21/11:30pm 11.3 9.2 9.9 91 0.7 SSW 11 13 6 7 1030.5 - 1.0
21/11:00pm 11.6 9.9 10.0 90 0.8 SSW 9 13 5 7 1030.3 1030.3 1.0
21/10:30pm 11.7 9.4 10.3 91 0.7 SSW 13 19 7 10 1030.3 - 1.0
21/10:00pm 11.6 8.9 10.3 92 0.7 SSW 15 20 8 11 1030.4 1030.4 1.0
21/09:30pm 11.8 9.9 10.5 92 0.7 SSW 11 15 6 8 1030.6 - 1.0
21/09:00pm 12.0 10.2 10.7 92 0.7 S 11 15 6 8 1030.4 1030.4 1.0
21/08:30pm 12.1 9.8 10.3 89 0.9 S 13 19 7 10 1030.1 - 1.0
21/08:00pm 12.3 10.8 10.7 90 0.8 S 9 15 5 8 1030.0 1030.0 1.0
21/07:30pm 12.5 11.2 11.1 91 0.7 S 9 13 5 7 1029.8 - 1.0
21/07:00pm 12.7 11.4 11.4 92 0.7 SE 9 11 5 6 1029.7 1029.7 0.8
21/06:30pm 12.7 11.0 11.3 91 0.7 S 11 15 6 8 1029.1 - 0.8
21/06:00pm 13.0 10.1 10.9 87 1.1 SSE 17 24 9 13 1028.9 1029.0 0.6
21/05:30pm 13.8 10.9 9.8 77 2.1 S 15 26 8 14 1028.5 - 0.0
21/05:00pm 14.5 10.9 9.7 73 2.5 S 19 32 10 17 1028.1 1028.2 0.0
21/04:30pm 14.9 11.0 9.5 70 2.8 SSE 20 30 11 16 1027.9 - 0.0
21/04:00pm 15.2 11.2 9.1 67 3.1 SSE 20 30 11 16 1027.5 1027.6 0.0
21/03:30pm 15.7 10.9 8.9 64 3.5 SSE 24 32 13 17 1027.3 - 0.0
21/03:00pm 16.3 11.9 9.0 62 3.7 SSE 22 28 12 15 1027.1 1027.2 0.0
21/02:30pm 16.4 11.4 8.1 58 4.2 SSE 24 32 13 17 1027.3 - 0.0
21/02:00pm 16.2 11.4 8.9 62 3.7 SSE 24 33 13 18 1027.5 1027.6 0.0
21/01:30pm 16.0 11.3 9.2 64 3.5 SSE 24 35 13 19 1027.6 - 0.0
21/01:00pm 17.3 13.2 10.0 62 3.8 ESE 22 30 12 16 1027.7 1027.8 0.0
21/12:30pm 16.3 13.0 9.5 64 3.5 SE 17 30 9 16 1028.1 - 0.0
21/12:00pm 16.2 12.2 9.2 63 3.6 SSE 20 28 11 15 1028.3 1028.4 0.0
21/11:30am 15.7 12.1 9.8 68 3.1 SSE 19 33 10 18 1028.8 - 0.0
21/11:00am 14.8 11.1 9.4 70 2.8 SSE 19 26 10 14 1029.2 1029.3 0.0
21/10:30am 14.7 11.1 9.7 72 2.6 SE 19 22 10 12 1029.3 - 0.0
21/10:00am 15.9 13.3 10.7 71 2.8 S 15 22 8 12 1029.3 1029.4 0.0
21/09:30am 13.7 12.4 9.9 78 2.0 WSW 7 9 4 5 1029.3 - 0.0
21/09:00am 12.6 10.7 8.9 78 1.8 WNW 9 13 5 7 1029.2 1029.3 0.0
21/08:30am 11.4 9.4 8.6 83 1.4 W 9 11 5 6 1029.0 - 0.0
21/08:00am 9.3 7.2 8.1 92 0.6 WSW 9 13 5 7 1029.0 1029.1 0.0
21/07:30am 8.2 5.4 7.1 93 0.5 WSW 11 15 6 8 1028.7 - 0.0
21/07:00am 7.6 4.7 6.4 92 0.5 SW 11 15 6 8 1028.3 1028.4 0.0
21/06:30am 7.7 4.4 6.5 92 0.6 SW 13 17 7 9 1028.1 - 0.0
21/06:00am 8.2 5.0 6.8 91 0.6 WSW 13 17 7 9 1027.8 1027.9 0.0
21/05:30am 8.0 5.4 6.3 89 0.8 WSW 9 11 5 6 1027.6 - 0.0
21/05:00am 8.5 6.6 6.8 89 0.8 WNW 6 7 3 4 1027.4 1027.5 0.0
21/04:30am 8.5 6.6 6.6 88 0.9 NNW 6 7 3 4 1027.4 - 0.0
21/04:00am 8.8 7.7 6.8 87 0.9 W 2 7 1 4 1027.4 1027.5 0.0
21/03:30am 8.6 6.4 6.2 85 1.1 W 7 9 4 5 1027.0 - 0.0
21/03:00am 8.9 7.2 5.8 81 1.4 W 4 7 2 4 1027.0 1027.1 0.0
21/02:30am 11.3 8.7 6.0 70 2.5 SSW 9 15 5 8 1026.8 - 0.0
21/02:00am 11.6 8.3 6.3 70 2.5 SSW 13 20 7 11 1026.8 1026.9 0.0
21/01:30am 11.1 7.8 6.3 72 2.3 S 13 19 7 10 1027.0 - 0.0
21/01:00am 11.2 7.5 6.5 73 2.2 S 15 22 8 12 1027.1 1027.2 0.0
21/12:30am 11.3 7.3 6.8 74 2.1 S 17 22 9 12 1027.0 - 0.0
21/12:00am 11.2 7.3 7.3 77 1.9 S 17 22 9 12 1027.0 1027.1 0.0
 
Date/Time
EST
Tmp

°C
App
Tmp
°C
Dew
Point
°C
Rel
Hum
%
Delta-T

°C
Wind Press
QNH
hPa
Press
MSL
hPa
Rain
since
9 am
mm
Dir
 
Spd
km/h
Gust
km/h
Spd
kts
Gust
kts
20/11:30pm 8.3 5.4 6.6 89 0.8 WSW 11 13 6 7 1027.0 - 0.0
20/11:00pm 8.5 5.9 6.3 86 1.0 WNW 9 13 5 7 1027.1 1027.2 0.0
20/10:30pm 9.5 7.0 6.6 82 1.4 W 9 13 5 7 1027.0 - 0.0
20/10:00pm 11.5 8.8 7.4 76 2.0 SSW 11 15 6 8 1027.0 1027.1 0.0
20/09:30pm 10.8 8.8 6.9 77 1.9 S 7 13 4 7 1027.0 - 0.0
20/09:00pm 11.6 8.4 6.7 72 2.3 S 13 17 7 9 1027.0 1027.1 0.0
20/08:30pm 12.3 8.8 7.0 70 2.6 S 15 20 8 11 1026.8 - 0.0
20/08:00pm 12.4 8.5 6.9 69 2.6 SSE 17 24 9 13 1026.6 1026.7 0.0
20/07:30pm 12.9 8.4 7.1 68 2.8 SSE 20 26 11 14 1026.4 - 0.0
20/07:00pm 12.8 8.6 7.3 69 2.7 SSE 19 28 10 15 1026.1 1026.2 0.0
20/06:30pm 12.9 8.6 7.1 68 2.8 SSE 19 30 10 16 1025.8 - 0.0
20/06:00pm 13.1 8.6 6.9 66 3.0 SSE 20 30 11 16 1025.6 1025.7 0.0
20/05:30pm 13.6 7.9 6.9 64 3.3 SSE 26 35 14 19 1025.2 - 0.0
20/05:00pm 13.8 8.6 7.1 64 3.3 SSE 24 32 13 17 1024.9 1025.0 0.0
20/04:30pm 14.3 8.2 6.6 60 3.7 SSE 28 37 15 20 1024.7 - 0.0
20/04:00pm 14.6 9.6 6.4 58 3.9 SSE 22 30 12 16 1024.6 1024.7 0.0
20/03:30pm 14.3 9.2 5.9 57 4.0 SSE 22 30 12 16 1024.5 - 0.0

Latest Capital City Observations: Canberra | Sydney | Melbourne | Brisbane | Adelaide | Perth | Hobart | Darwin

Other Formats:

Comma delimited format used in spreadsheet applications
http://www.bom.gov.au/fwo/IDN60901/IDN60901.95761.axf

JavaScript Object Notation format (JSON) in row-major order
http://www.bom.gov.au/fwo/IDN60901/IDN60901.95761.json